Time;durP1;ratioP1;P1;durP2;ratioP2;P2;SDS_P1;SDS_P2;PMS_P1;PMS_P2;Temp;Humidity;BMP_temperature;BMP_pressure;BME280_temperature;BME280_humidity;BME280_pressure;Samples;Min_cycle;Max_cycle;Signal;HPM_P1;HPM_P2
2022/03/14 00:01:15;;;;;;;8.65;4.90;;;;;;;;;;5045599;28;20052;-68
2022/03/14 00:03:48;;;;;;;10.05;5.53;;;;;;;;;;5045932;28;20045;-68
2022/03/14 00:06:15;;;;;;;8.43;5.10;;;;;;;;;;5045803;28;20682;-68
2022/03/14 00:08:42;;;;;;;9.02;5.25;;;;;;;;;;5045765;28;20047;-67
2022/03/14 00:11:09;;;;;;;7.70;4.80;;;;;;;;;;5027914;28;20075;-68
2022/03/14 00:13:35;;;;;;;8.85;5.43;;;;;;;;;;5045788;28;20045;-68
2022/03/14 00:16:03;;;;;;;9.23;5.03;;;;;;;;;;5045668;28;20052;-68
2022/03/14 00:18:31;;;;;;;10.10;5.05;;;;;;;;;;5045495;28;20037;-68
2022/03/14 00:20:57;;;;;;;10.18;5.45;;;;;;;;;;5045597;28;20064;-67
2022/03/14 00:23:26;;;;;;;8.63;4.95;;;;;;;;;;5045664;28;20072;-67
2022/03/14 00:25:52;;;;;;;9.27;5.35;;;;;;;;;;5045587;28;20076;-68
2022/03/14 00:28:18;;;;;;;9.18;5.50;;;;;;;;;;5045424;28;20132;-68
2022/03/14 00:30:45;;;;;;;10.73;5.80;;;;;;;;;;5044876;28;20128;-68
2022/03/14 00:33:11;;;;;;;8.65;5.30;;;;;;;;;;5029015;28;20671;-68
2022/03/14 00:35:37;;;;;;;10.52;5.72;;;;;;;;;;5045044;28;20036;-68
2022/03/14 00:38:03;;;;;;;10.25;5.22;;;;;;;;;;5045155;28;20049;-67
2022/03/14 00:40:29;;;;;;;10.27;5.57;;;;;;;;;;5028625;28;20094;-68
2022/03/14 00:42:56;;;;;;;8.68;5.32;;;;;;;;;;5045129;28;20052;-67
2022/03/14 00:45:24;;;;;;;10.77;5.63;;;;;;;;;;5028603;28;20602;-69
2022/03/14 00:47:50;;;;;;;10.48;5.97;;;;;;;;;;5044439;28;20051;-69
2022/03/14 00:50:16;;;;;;;8.27;5.35;;;;;;;;;;5045180;28;20617;-68
2022/03/14 00:52:42;;;;;;;9.57;6.07;;;;;;;;;;5027739;28;20053;-69
2022/03/14 00:55:09;;;;;;;8.95;5.80;;;;;;;;;;5045127;28;20440;-68
2022/03/14 00:57:35;;;;;;;8.55;5.45;;;;;;;;;;5044875;28;20075;-68
2022/03/14 01:00:01;;;;;;;9.18;5.65;;;;;;;;;;5044979;28;20049;-68
2022/03/14 01:02:27;;;;;;;9.43;5.70;;;;;;;;;;5044531;28;20057;-68
2022/03/14 01:04:53;;;;;;;9.50;5.55;;;;;;;;;;5044974;28;20567;-69
2022/03/14 01:07:19;;;;;;;8.02;4.93;;;;;;;;;;5028257;28;20048;-69
2022/03/14 01:09:45;;;;;;;10.15;6.20;;;;;;;;;;5051489;28;20036;-68
2022/03/14 01:12:12;;;;;;;9.85;5.57;;;;;;;;;;5063216;28;20508;-69
2022/03/14 01:14:38;;;;;;;10.48;5.18;;;;;;;;;;5064070;28;20554;-69
2022/03/14 01:17:04;;;;;;;8.02;5.13;;;;;;;;;;5064344;28;20047;-69
2022/03/14 01:19:30;;;;;;;9.32;5.40;;;;;;;;;;5047489;28;20048;-69
2022/03/14 01:21:56;;;;;;;8.68;5.32;;;;;;;;;;5063836;28;20044;-69
2022/03/14 01:24:24;;;;;;;8.63;5.40;;;;;;;;;;5055943;28;20092;-69
2022/03/14 01:26:51;;;;;;;9.57;5.47;;;;;;;;;;5039045;28;20474;-69
2022/03/14 01:29:17;;;;;;;8.90;5.63;;;;;;;;;;5029003;28;20439;-68
2022/03/14 01:31:43;;;;;;;8.55;5.43;;;;;;;;;;5060262;28;20124;-69
2022/03/14 01:34:09;;;;;;;7.80;4.78;;;;;;;;;;5046092;28;20124;-69
2022/03/14 01:36:36;;;;;;;8.23;4.68;;;;;;;;;;5065135;28;20769;-69
2022/03/14 01:39:04;;;;;;;8.20;5.25;;;;;;;;;;5064611;28;20123;-69
2022/03/14 01:41:30;;;;;;;8.23;5.05;;;;;;;;;;5063971;28;20044;-69
2022/03/14 01:43:56;;;;;;;9.10;5.30;;;;;;;;;;5064522;28;20075;-69
2022/03/14 01:46:22;;;;;;;9.52;5.10;;;;;;;;;;5063622;28;20055;-68
2022/03/14 01:48:49;;;;;;;8.90;5.18;;;;;;;;;;5064946;28;20091;-68
2022/03/14 01:51:16;;;;;;;7.50;4.78;;;;;;;;;;5063921;28;20101;-68
2022/03/14 01:53:43;;;;;;;8.52;4.70;;;;;;;;;;5063774;28;20040;-68
2022/03/14 01:56:12;;;;;;;7.90;4.65;;;;;;;;;;5047093;28;20047;-69
2022/03/14 01:58:38;;;;;;;9.07;4.97;;;;;;;;;;5047305;28;20378;-69
2022/03/14 02:01:05;;;;;;;7.95;4.90;;;;;;;;;;5051883;28;20110;-69
2022/03/14 02:03:31;;;;;;;8.10;4.82;;;;;;;;;;5048058;28;20044;-68
2022/03/14 02:05:57;;;;;;;8.45;4.90;;;;;;;;;;5063720;28;20635;-69
2022/03/14 02:08:23;;;;;;;8.32;4.85;;;;;;;;;;5063812;28;20080;-69
2022/03/14 02:10:49;;;;;;;8.65;5.10;;;;;;;;;;5063761;28;20633;-68
2022/03/14 02:13:15;;;;;;;7.20;4.60;;;;;;;;;;5046705;28;20044;-69
2022/03/14 02:15:41;;;;;;;6.95;4.05;;;;;;;;;;5063389;28;20436;-69
2022/03/14 02:18:07;;;;;;;7.88;4.80;;;;;;;;;;5064362;28;20405;-69
2022/03/14 02:20:34;;;;;;;8.00;5.15;;;;;;;;;;5063833;28;20124;-69
2022/03/14 02:23:00;;;;;;;8.30;4.63;;;;;;;;;;5047182;28;20490;-68
2022/03/14 02:25:26;;;;;;;8.00;4.75;;;;;;;;;;5046351;28;20712;-68
2022/03/14 02:27:52;;;;;;;7.10;4.25;;;;;;;;;;5063052;28;20147;-69
2022/03/14 02:30:18;;;;;;;7.28;4.32;;;;;;;;;;5062904;28;20128;-68
2022/03/14 02:32:45;;;;;;;7.95;4.38;;;;;;;;;;5061480;28;20078;-68
2022/03/14 02:35:12;;;;;;;7.75;4.65;;;;;;;;;;5062038;28;20036;-67
2022/03/14 02:37:39;;;;;;;6.75;4.03;;;;;;;;;;5062362;28;20033;-69
2022/03/14 02:40:06;;;;;;;7.50;4.28;;;;;;;;;;5056307;28;20045;-68
2022/03/14 02:42:33;;;;;;;7.32;4.15;;;;;;;;;;5042780;28;20049;-68
2022/03/14 02:45:00;;;;;;;6.90;4.00;;;;;;;;;;5042883;28;20056;-68
2022/03/14 02:47:26;;;;;;;7.53;4.60;;;;;;;;;;5042544;28;20052;-68
2022/03/14 02:49:52;;;;;;;7.72;3.83;;;;;;;;;;5042945;28;20052;-68
2022/03/14 02:52:18;;;;;;;7.85;4.38;;;;;;;;;;5043147;28;20052;-68
2022/03/14 02:54:44;;;;;;;6.90;4.00;;;;;;;;;;5026614;28;20030;-68
2022/03/14 02:57:11;;;;;;;7.13;4.15;;;;;;;;;;5043039;28;20048;-68
2022/03/14 02:59:37;;;;;;;7.50;4.00;;;;;;;;;;5042849;28;20057;-68
2022/03/14 03:02:03;;;;;;;7.30;4.20;;;;;;;;;;5042880;28;20087;-69
2022/03/14 03:04:29;;;;;;;7.95;4.38;;;;;;;;;;5026337;28;20056;-68
2022/03/14 03:06:55;;;;;;;7.03;4.03;;;;;;;;;;5043877;28;20045;-69
2022/03/14 03:09:22;;;;;;;6.85;3.80;;;;;;;;;;5042903;28;20045;-69
2022/03/14 03:11:48;;;;;;;6.68;3.70;;;;;;;;;;5026054;28;20037;-68
2022/03/14 03:14:14;;;;;;;6.97;3.92;;;;;;;;;;5042599;28;20692;-69
2022/03/14 03:16:40;;;;;;;7.25;3.97;;;;;;;;;;5042585;28;20044;-68
2022/03/14 03:19:06;;;;;;;6.90;4.07;;;;;;;;;;5043121;28;20044;-69
2022/03/14 03:21:34;;;;;;;6.28;3.60;;;;;;;;;;5043221;28;20106;-69
2022/03/14 03:24:00;;;;;;;7.82;4.50;;;;;;;;;;5042856;28;20127;-68
2022/03/14 03:26:26;;;;;;;6.68;3.70;;;;;;;;;;5042792;28;20064;-69
2022/03/14 03:28:52;;;;;;;6.65;3.95;;;;;;;;;;5042472;28;20772;-68
2022/03/14 03:31:19;;;;;;;8.95;4.07;;;;;;;;;;5042627;28;20160;-69
2022/03/14 03:33:47;;;;;;;6.07;3.45;;;;;;;;;;5042463;28;20037;-69
2022/03/14 03:36:13;;;;;;;7.22;3.90;;;;;;;;;;5042067;28;20052;-69
2022/03/14 03:38:39;;;;;;;7.13;3.80;;;;;;;;;;5042725;28;20048;-69
2022/03/14 03:41:05;;;;;;;6.88;3.58;;;;;;;;;;5042835;28;20037;-69
2022/03/14 03:43:31;;;;;;;6.68;3.70;;;;;;;;;;5043888;28;20040;-69
2022/03/14 03:45:57;;;;;;;6.35;3.35;;;;;;;;;;5045528;28;20041;-68
2022/03/14 03:48:23;;;;;;;6.47;3.42;;;;;;;;;;5045427;28;20083;-69
2022/03/14 03:50:49;;;;;;;6.70;3.50;;;;;;;;;;5045357;28;20044;-68
2022/03/14 03:53:15;;;;;;;6.50;3.30;;;;;;;;;;5046023;28;20041;-69
2022/03/14 03:55:41;;;;;;;6.55;3.30;;;;;;;;;;5046197;28;20517;-69
2022/03/14 03:58:07;;;;;;;6.28;3.40;;;;;;;;;;5046360;28;20098;-69
2022/03/14 04:00:33;;;;;;;5.80;2.80;;;;;;;;;;5046497;28;20407;-69
2022/03/14 04:02:59;;;;;;;8.02;3.85;;;;;;;;;;5047322;28;20664;-69
2022/03/14 04:05:27;;;;;;;6.93;3.17;;;;;;;;;;5045741;28;20045;-69
2022/03/14 04:07:55;;;;;;;6.35;3.25;;;;;;;;;;5045371;28;20056;-69
2022/03/14 04:10:22;;;;;;;5.75;3.15;;;;;;;;;;5045769;28;20102;-69
2022/03/14 04:12:51;;;;;;;6.18;3.17;;;;;;;;;;5028991;28;20132;-69
2022/03/14 04:15:18;;;;;;;7.00;3.67;;;;;;;;;;5047201;28;20040;-69
2022/03/14 04:17:44;;;;;;;5.72;3.13;;;;;;;;;;5046812;28;20159;-68
2022/03/14 04:20:11;;;;;;;5.57;3.10;;;;;;;;;;5046347;28;20131;-68
2022/03/14 04:22:38;;;;;;;7.22;3.10;;;;;;;;;;5028362;28;20098;-68
2022/03/14 04:25:05;;;;;;;5.65;2.88;;;;;;;;;;5045297;28;20060;-68
2022/03/14 04:27:31;;;;;;;6.68;3.03;;;;;;;;;;5045238;28;20083;-68
2022/03/14 04:29:57;;;;;;;6.68;3.33;;;;;;;;;;5045330;28;20045;-69
2022/03/14 04:32:24;;;;;;;6.05;3.05;;;;;;;;;;5045101;28;20037;-68
2022/03/14 04:34:50;;;;;;;5.03;2.78;;;;;;;;;;5028528;28;20041;-69
2022/03/14 04:37:16;;;;;;;6.63;3.17;;;;;;;;;;5045556;28;20048;-68
2022/03/14 04:39:42;;;;;;;5.40;2.67;;;;;;;;;;5045560;28;20037;-68
2022/03/14 04:42:09;;;;;;;5.53;2.90;;;;;;;;;;5028460;28;20045;-68
2022/03/14 04:44:36;;;;;;;5.60;2.85;;;;;;;;;;5045134;28;20052;-68
2022/03/14 04:47:02;;;;;;;5.80;2.80;;;;;;;;;;5044890;28;20115;-68
2022/03/14 04:49:28;;;;;;;5.53;2.80;;;;;;;;;;5046222;28;20075;-68
2022/03/14 04:51:55;;;;;;;5.72;2.80;;;;;;;;;;5045147;28;20045;-68
2022/03/14 04:54:21;;;;;;;5.90;2.83;;;;;;;;;;5044953;28;20037;-68
2022/03/14 04:56:47;;;;;;;6.07;2.80;;;;;;;;;;5044166;28;20051;-68
2022/03/14 04:59:13;;;;;;;5.43;2.72;;;;;;;;;;5044685;28;20128;-68
2022/03/14 05:01:40;;;;;;;5.18;2.72;;;;;;;;;;5046069;28;20039;-68
2022/03/14 05:04:06;;;;;;;5.18;2.67;;;;;;;;;;5044702;28;20041;-68
2022/03/14 05:06:32;;;;;;;5.60;2.92;;;;;;;;;;5045151;28;20510;-68
2022/03/14 05:08:59;;;;;;;5.65;3.00;;;;;;;;;;5044706;28;20658;-68
2022/03/14 05:11:25;;;;;;;5.63;2.70;;;;;;;;;;5028481;28;20037;-68
2022/03/14 05:13:51;;;;;;;5.53;2.80;;;;;;;;;;5044655;28;20041;-68
2022/03/14 05:16:17;;;;;;;5.15;2.55;;;;;;;;;;5045824;28;20041;-69
2022/03/14 05:18:43;;;;;;;5.43;2.72;;;;;;;;;;5044335;28;20120;-69
2022/03/14 05:21:10;;;;;;;4.95;2.15;;;;;;;;;;5044512;28;20148;-69
2022/03/14 05:23:36;;;;;;;5.68;2.35;;;;;;;;;;5044732;28;20063;-69
2022/03/14 05:26:02;;;;;;;5.07;2.55;;;;;;;;;;5045439;28;20280;-70
2022/03/14 05:28:28;;;;;;;5.50;2.67;;;;;;;;;;5043932;28;20056;-69
2022/03/14 05:30:54;;;;;;;4.97;2.17;;;;;;;;;;5044469;28;20049;-69
2022/03/14 05:33:20;;;;;;;5.95;2.67;;;;;;;;;;5043297;28;20048;-69
2022/03/14 05:35:46;;;;;;;7.50;2.85;;;;;;;;;;5043995;28;20040;-69
2022/03/14 05:38:12;;;;;;;4.90;2.40;;;;;;;;;;5027587;28;20036;-69
2022/03/14 05:40:38;;;;;;;5.45;2.40;;;;;;;;;;5027446;28;20123;-69
2022/03/14 05:43:08;;;;;;;7.43;2.50;;;;;;;;;;5043882;28;20124;-69
2022/03/14 05:45:34;;;;;;;4.57;2.40;;;;;;;;;;5044068;28;20045;-69
2022/03/14 05:48:00;;;;;;;4.85;2.22;;;;;;;;;;5043721;28;20044;-69
2022/03/14 05:50:27;;;;;;;4.65;2.17;;;;;;;;;;5043704;28;20045;-68
2022/03/14 05:52:53;;;;;;;6.28;2.35;;;;;;;;;;5043908;28;20049;-68
2022/03/14 05:55:19;;;;;;;6.35;2.60;;;;;;;;;;5044348;28;20609;-68
2022/03/14 05:57:45;;;;;;;4.72;2.20;;;;;;;;;;5043462;28;20044;-68
2022/03/14 06:00:12;;;;;;;5.10;2.40;;;;;;;;;;5044216;28;20618;-68
2022/03/14 06:02:39;;;;;;;4.63;1.90;;;;;;;;;;5043615;28;20059;-68
2022/03/14 06:05:05;;;;;;;5.10;2.13;;;;;;;;;;5043545;28;20048;-68
2022/03/14 06:07:32;;;;;;;4.60;2.42;;;;;;;;;;5026714;28;20040;-68
2022/03/14 06:09:58;;;;;;;4.80;2.33;;;;;;;;;;5042651;28;20045;-69
2022/03/14 06:12:28;;;;;;;5.22;2.33;;;;;;;;;;5043400;28;20041;-69
2022/03/14 06:14:55;;;;;;;5.45;2.50;;;;;;;;;;5029425;28;20041;-69
2022/03/14 06:17:21;;;;;;;4.40;2.22;;;;;;;;;;5030514;28;20056;-69
2022/03/14 06:19:47;;;;;;;4.90;2.50;;;;;;;;;;5065809;28;20438;-69
2022/03/14 06:22:20;;;;;;;4.63;2.13;;;;;;;;;;5082477;28;20043;-68
2022/03/14 06:24:47;;;;;;;5.90;2.75;;;;;;;;;;5066750;28;20054;-69
2022/03/14 06:27:16;;;;;;;5.47;2.50;;;;;;;;;;5083054;28;20136;-69
2022/03/14 06:29:43;;;;;;;6.68;2.90;;;;;;;;;;5066200;28;20040;-69
2022/03/14 06:32:09;;;;;;;8.38;2.70;;;;;;;;;;5079135;28;20036;-69
2022/03/14 06:34:35;;;;;;;5.85;2.85;;;;;;;;;;5051441;28;20037;-69
2022/03/14 06:37:01;;;;;;;7.07;2.60;;;;;;;;;;5041620;28;20029;-69
2022/03/14 06:39:28;;;;;;;9.43;3.65;;;;;;;;;;5043343;28;20049;-69
2022/03/14 06:41:54;;;;;;;6.55;2.60;;;;;;;;;;5026241;28;20514;-68
2022/03/14 06:44:21;;;;;;;5.68;2.47;;;;;;;;;;5043154;28;20606;-68
2022/03/14 06:46:47;;;;;;;4.97;2.22;;;;;;;;;;5042569;28;20045;-69
2022/03/14 06:49:15;;;;;;;5.00;2.35;;;;;;;;;;5037965;28;20056;-69
2022/03/14 06:51:44;;;;;;;4.85;2.00;;;;;;;;;;5027712;28;21115;-69
2022/03/14 06:54:10;;;;;;;4.60;2.13;;;;;;;;;;5060748;28;20087;-69
2022/03/14 06:56:41;;;;;;;6.68;2.38;;;;;;;;;;5062861;28;20115;-68
2022/03/14 06:59:07;;;;;;;5.15;2.10;;;;;;;;;;5062560;28;20036;-69
2022/03/14 07:01:34;;;;;;;9.48;2.53;;;;;;;;;;5063029;28;20561;-69
2022/03/14 07:04:01;;;;;;;5.25;2.42;;;;;;;;;;5046486;28;20045;-70
2022/03/14 07:06:27;;;;;;;7.97;2.20;;;;;;;;;;5064010;28;20056;-69
2022/03/14 07:08:53;;;;;;;4.80;2.00;;;;;;;;;;5062908;28;20114;-69
2022/03/14 07:11:19;;;;;;;7.32;2.30;;;;;;;;;;5046111;28;20039;-69
2022/03/14 07:13:45;;;;;;;5.82;2.17;;;;;;;;;;5063727;28;20745;-69
2022/03/14 07:16:11;;;;;;;4.03;2.00;;;;;;;;;;5062485;28;20041;-68
2022/03/14 07:18:37;;;;;;;5.00;2.13;;;;;;;;;;5062346;28;20625;-69
2022/03/14 07:21:03;;;;;;;6.72;2.15;;;;;;;;;;5067053;28;20059;-69
2022/03/14 07:23:29;;;;;;;5.15;2.15;;;;;;;;;;5034747;28;20045;-69
2022/03/14 07:25:55;;;;;;;6.03;2.22;;;;;;;;;;5031207;28;20057;-69
2022/03/14 07:28:21;;;;;;;5.13;2.28;;;;;;;;;;5037865;28;20089;-69
2022/03/14 07:30:47;;;;;;;4.70;2.10;;;;;;;;;;5059740;28;20620;-69
2022/03/14 07:33:15;;;;;;;3.97;1.85;;;;;;;;;;5045537;28;20041;-70
2022/03/14 07:35:42;;;;;;;5.50;2.03;;;;;;;;;;5045747;28;20060;-70
2022/03/14 07:38:10;;;;;;;4.97;2.00;;;;;;;;;;5045787;28;20068;-70
2022/03/14 07:40:36;;;;;;;4.90;2.28;;;;;;;;;;5045928;28;20052;-69
2022/03/14 07:43:03;;;;;;;4.80;2.17;;;;;;;;;;5029552;28;20083;-70
2022/03/14 07:45:29;;;;;;;4.95;2.10;;;;;;;;;;5029046;28;20052;-70
2022/03/14 07:47:56;;;;;;;4.88;2.10;;;;;;;;;;5052514;28;20047;-70
2022/03/14 07:50:23;;;;;;;4.88;2.15;;;;;;;;;;5028295;28;20057;-70
2022/03/14 07:52:49;;;;;;;4.75;1.90;;;;;;;;;;5047638;28;20051;-70
2022/03/14 07:55:15;;;;;;;4.65;1.95;;;;;;;;;;5061736;28;20040;-70
2022/03/14 07:57:41;;;;;;;7.32;2.10;;;;;;;;;;5038588;28;20753;-70
2022/03/14 08:00:12;;;;;;;5.97;1.63;;;;;;;;;;5019431;28;20681;-70
2022/03/14 08:02:39;;;;;;;4.97;2.00;;;;;;;;;;5045199;28;20041;-70
2022/03/14 08:05:09;;;;;;;4.63;2.00;;;;;;;;;;5045281;28;20090;-71
2022/03/14 08:07:35;;;;;;;6.53;2.08;;;;;;;;;;5045392;28;20158;-70
2022/03/14 08:10:09;;;;;;;4.63;2.08;;;;;;;;;;5029020;28;20548;-70
2022/03/14 08:12:43;;;;;;;6.50;1.90;;;;;;;;;;5045650;28;20051;-70
2022/03/14 08:15:09;;;;;;;;;;;;;;;;;;5046308;28;20052;-69
2022/03/14 08:17:35;;;;;;;4.20;1.80;;;;;;;;;;5044612;28;19916;-70
2022/03/14 08:20:02;;;;;;;4.85;2.10;;;;;;;;;;5029074;28;20045;-69
2022/03/14 08:22:27;;;;;;;5.30;1.90;;;;;;;;;;5044357;28;20132;-70
2022/03/14 08:24:53;;;;;;;5.93;2.38;;;;;;;;;;5045098;28;20127;-70
2022/03/14 08:27:19;;;;;;;5.05;2.10;;;;;;;;;;5046516;28;20049;-70
2022/03/14 08:29:45;;;;;;;4.32;1.60;;;;;;;;;;5045108;28;20096;-70
2022/03/14 08:32:12;;;;;;;5.43;1.95;;;;;;;;;;5044080;28;20032;-70
2022/03/14 08:34:39;;;;;;;4.75;1.83;;;;;;;;;;5028653;28;20041;-70
2022/03/14 08:37:05;;;;;;;4.72;1.90;;;;;;;;;;5046555;28;20118;-69
2022/03/14 08:39:33;;;;;;;4.45;1.77;;;;;;;;;;5028308;28;20073;-69
2022/03/14 08:41:59;;;;;;;4.47;1.80;;;;;;;;;;5044946;28;20045;-70
2022/03/14 08:44:25;;;;;;;4.22;1.80;;;;;;;;;;5028590;28;20045;-70
2022/03/14 08:46:51;;;;;;;3.88;1.75;;;;;;;;;;5044890;28;20044;-70
2022/03/14 08:49:17;;;;;;;4.47;1.88;;;;;;;;;;5045090;28;20124;-70
2022/03/14 08:51:43;;;;;;;4.80;1.80;;;;;;;;;;5045253;28;20116;-69
2022/03/14 08:54:09;;;;;;;5.45;2.08;;;;;;;;;;5054529;28;20516;-70
2022/03/14 08:56:35;;;;;;;4.50;1.92;;;;;;;;;;5066531;28;20028;-70
2022/03/14 08:59:01;;;;;;;3.85;1.70;;;;;;;;;;5039828;28;20132;-70
2022/03/14 09:01:27;;;;;;;7.55;1.95;;;;;;;;;;5047834;28;20068;-70
2022/03/14 09:03:53;;;;;;;4.40;1.95;;;;;;;;;;5044149;28;20494;-70
2022/03/14 09:06:19;;;;;;;4.60;2.10;;;;;;;;;;5044148;28;20119;-70
2022/03/14 09:08:45;;;;;;;4.05;1.52;;;;;;;;;;5043616;28;20045;-70
2022/03/14 09:11:11;;;;;;;5.38;1.80;;;;;;;;;;5046667;28;20036;-70
2022/03/14 09:13:38;;;;;;;5.25;1.95;;;;;;;;;;5044309;28;20040;-70
2022/03/14 09:16:08;;;;;;;3.90;1.70;;;;;;;;;;5027862;28;20041;-70
2022/03/14 09:18:35;;;;;;;4.90;1.88;;;;;;;;;;5043872;28;20156;-69
2022/03/14 09:21:01;;;;;;;4.05;1.65;;;;;;;;;;5038306;28;20051;-69
2022/03/14 09:23:27;;;;;;;4.50;1.60;;;;;;;;;;5044609;28;20659;-69
2022/03/14 09:25:55;;;;;;;4.57;2.00;;;;;;;;;;5037411;28;20064;-69
2022/03/14 09:28:21;;;;;;;3.88;1.60;;;;;;;;;;5043130;28;20077;-69
2022/03/14 09:30:47;;;;;;;3.95;1.67;;;;;;;;;;5028061;28;20076;-68
2022/03/14 09:33:13;;;;;;;4.50;2.00;;;;;;;;;;5047297;28;20072;-69
2022/03/14 09:35:39;;;;;;;5.15;1.98;;;;;;;;;;5047058;28;20044;-68
2022/03/14 09:38:05;;;;;;;4.45;1.88;;;;;;;;;;5047689;28;20132;-68
2022/03/14 09:40:32;;;;;;;4.28;2.03;;;;;;;;;;5048046;28;20041;-68
2022/03/14 09:42:59;;;;;;;4.65;2.10;;;;;;;;;;5044858;28;20115;-69
2022/03/14 09:45:26;;;;;;;5.47;1.67;;;;;;;;;;5044231;28;20120;-69
2022/03/14 09:47:57;;;;;;;4.75;1.80;;;;;;;;;;5043681;28;20057;-69
2022/03/14 09:50:31;;;;;;;4.00;1.77;;;;;;;;;;5043973;28;20186;-69
2022/03/14 09:52:58;;;;;;;4.53;1.90;;;;;;;;;;5044282;28;20048;-70
2022/03/14 09:55:25;;;;;;;4.75;1.88;;;;;;;;;;5031159;28;20119;-68
2022/03/14 09:57:51;;;;;;;4.25;1.75;;;;;;;;;;5027790;28;20044;-68
2022/03/14 10:00:18;;;;;;;3.92;1.75;;;;;;;;;;5033431;28;20413;-68
2022/03/14 10:02:44;;;;;;;5.40;2.10;;;;;;;;;;5042209;28;20098;-68
2022/03/14 10:05:11;;;;;;;5.53;2.17;;;;;;;;;;5034791;28;20029;-68
2022/03/14 10:07:39;;;;;;;4.88;2.00;;;;;;;;;;5042791;28;20055;-67
2022/03/14 10:10:06;;;;;;;5.05;1.83;;;;;;;;;;5042848;28;20045;-68
2022/03/14 10:12:32;;;;;;;4.30;1.90;;;;;;;;;;5043122;28;20045;-68
2022/03/14 10:15:02;;;;;;;3.92;1.70;;;;;;;;;;5043461;28;20118;-68
2022/03/14 10:17:28;;;;;;;8.23;2.25;;;;;;;;;;5043200;28;20106;-68
2022/03/14 10:19:55;;;;;;;5.25;2.30;;;;;;;;;;5043022;28;20079;-68
2022/03/14 10:22:22;;;;;;;5.68;2.58;;;;;;;;;;5043631;28;20041;-68
2022/03/14 10:24:48;;;;;;;5.72;2.20;;;;;;;;;;5044050;28;20051;-67
2022/03/14 10:27:19;;;;;;;4.90;2.55;;;;;;;;;;5043553;28;20060;-67
2022/03/14 10:29:49;;;;;;;5.93;2.47;;;;;;;;;;5043496;28;20135;-67
2022/03/14 10:32:33;;;;;;;8.07;2.70;;;;;;;;;;5026422;28;20094;-68
2022/03/14 10:35:04;;;;;;;6.03;2.35;;;;;;;;;;5043263;28;20648;-68
2022/03/14 10:37:31;;;;;;;5.32;2.40;;;;;;;;;;5041662;28;20120;-68
2022/03/14 10:40:02;;;;;;;5.10;2.55;;;;;;;;;;5042867;28;20040;-68
2022/03/14 10:42:28;;;;;;;4.70;2.20;;;;;;;;;;5026522;28;20047;-68
2022/03/14 10:44:55;;;;;;;6.03;2.35;;;;;;;;;;5043128;28;20045;-68
2022/03/14 10:47:24;;;;;;;5.30;2.40;;;;;;;;;;5043336;28;20051;-68
2022/03/14 10:49:50;;;;;;;5.35;2.55;;;;;;;;;;5026237;28;20052;-68
2022/03/14 10:52:18;;;;;;;4.53;1.90;;;;;;;;;;5043063;28;20045;-68
2022/03/14 10:54:45;;;;;;;4.93;2.40;;;;;;;;;;5042687;28;20584;-68
2022/03/14 10:57:17;;;;;;;5.45;2.42;;;;;;;;;;5042976;28;20466;-68
2022/03/14 10:59:46;;;;;;;5.97;2.40;;;;;;;;;;5042954;28;20033;-68
2022/03/14 11:02:12;;;;;;;5.53;2.38;;;;;;;;;;5042938;28;20079;-68
2022/03/14 11:04:42;;;;;;;5.20;2.55;;;;;;;;;;5042711;28;20045;-68
2022/03/14 11:07:08;;;;;;;4.97;2.00;;;;;;;;;;5042761;28;20041;-68
2022/03/14 11:09:38;;;;;;;5.13;2.10;;;;;;;;;;5042428;28;20067;-68
2022/03/14 11:12:08;;;;;;;6.22;2.70;;;;;;;;;;5042675;28;20053;-68
2022/03/14 11:14:35;;;;;;;5.30;2.60;;;;;;;;;;5042693;28;20040;-68
2022/03/14 11:17:12;;;;;;;4.97;2.30;;;;;;;;;;5041755;28;20721;-68
2022/03/14 11:19:38;;;;;;;5.50;2.55;;;;;;;;;;5026181;28;20049;-68
2022/03/14 11:22:10;;;;;;;5.65;2.88;;;;;;;;;;5042822;28;20037;-68
2022/03/14 11:24:38;;;;;;;5.32;2.50;;;;;;;;;;5042916;28;20123;-68
2022/03/14 11:27:05;;;;;;;5.93;2.50;;;;;;;;;;5026080;28;20053;-68
2022/03/14 11:29:33;;;;;;;5.93;2.83;;;;;;;;;;5042339;28;20045;-68
2022/03/14 11:31:59;;;;;;;5.63;2.70;;;;;;;;;;5026047;28;20069;-68
2022/03/14 11:34:29;;;;;;;6.68;2.88;;;;;;;;;;5042463;28;20033;-69
2022/03/14 11:36:55;;;;;;;6.20;2.80;;;;;;;;;;5026128;28;20037;-68
2022/03/14 11:39:22;;;;;;;6.20;2.95;;;;;;;;;;5042702;28;20045;-68
2022/03/14 11:41:48;;;;;;;6.00;2.60;;;;;;;;;;5042278;28;20076;-68
2022/03/14 11:44:15;;;;;;;5.63;2.60;;;;;;;;;;5043833;28;20052;-69
2022/03/14 11:46:41;;;;;;;6.25;3.00;;;;;;;;;;5025627;28;20137;-69
2022/03/14 11:49:13;;;;;;;5.47;2.60;;;;;;;;;;5043583;28;20043;-68
2022/03/14 11:51:41;;;;;;;5.85;2.60;;;;;;;;;;5042295;28;20502;-68
2022/03/14 11:54:14;;;;;;;6.70;2.80;;;;;;;;;;5042303;28;20045;-69
2022/03/14 11:56:56;;;;;;;5.78;2.72;;;;;;;;;;5042394;28;20043;-69
2022/03/14 11:59:32;;;;;;;5.13;2.42;;;;;;;;;;5036772;28;20534;-68
2022/03/14 12:02:00;;;;;;;6.75;3.10;;;;;;;;;;5041538;28;20682;-69
2022/03/14 12:04:37;;;;;;;6.80;2.67;;;;;;;;;;5025087;28;20055;-69
2022/03/14 12:07:05;;;;;;;6.70;2.92;;;;;;;;;;5044690;28;20694;-68
2022/03/14 12:09:33;;;;;;;5.25;2.47;;;;;;;;;;5045792;28;20041;-69
2022/03/14 12:12:01;;;;;;;5.40;2.78;;;;;;;;;;5028924;28;20048;-68
2022/03/14 12:14:47;;;;;;;4.97;2.28;;;;;;;;;;5028833;28;20044;-69
2022/03/14 12:17:13;;;;;;;6.63;2.55;;;;;;;;;;5045552;28;20056;-68
2022/03/14 12:19:41;;;;;;;5.18;1.92;;;;;;;;;;5028828;28;20045;-68
2022/03/14 12:22:07;;;;;;;6.32;2.47;;;;;;;;;;5045624;28;20070;-69
2022/03/14 12:24:36;;;;;;;5.65;2.42;;;;;;;;;;5045762;28;20053;-68
2022/03/14 12:27:03;;;;;;;8.15;2.33;;;;;;;;;;5046436;28;20056;-68
2022/03/14 12:29:36;;;;;;;5.43;2.45;;;;;;;;;;5045621;28;20099;-69
2022/03/14 12:32:21;;;;;;;5.47;2.25;;;;;;;;;;5045384;28;20120;-68
2022/03/14 12:35:06;;;;;;;4.78;2.03;;;;;;;;;;5045401;28;20136;-68
2022/03/14 12:37:34;;;;;;;5.28;2.17;;;;;;;;;;5028637;28;20565;-68
2022/03/14 12:40:00;;;;;;;5.30;2.40;;;;;;;;;;5045406;28;20048;-68
2022/03/14 12:42:26;;;;;;;7.00;2.75;;;;;;;;;;5045340;28;20047;-69
2022/03/14 12:45:11;;;;;;;4.93;2.10;;;;;;;;;;5045410;28;20532;-69
2022/03/14 12:47:41;;;;;;;5.13;2.47;;;;;;;;;;5028223;28;20079;-69
2022/03/14 12:50:08;;;;;;;5.60;2.45;;;;;;;;;;5045017;28;20045;-69
2022/03/14 12:52:53;;;;;;;6.18;2.78;;;;;;;;;;5044947;28;20063;-69
2022/03/14 12:55:20;;;;;;;5.40;2.20;;;;;;;;;;5027624;28;20047;-69
2022/03/14 12:57:54;;;;;;;6.88;2.70;;;;;;;;;;5027940;28;20087;-68
2022/03/14 13:00:20;;;;;;;5.40;2.50;;;;;;;;;;5028477;28;20049;-69
2022/03/14 13:02:47;;;;;;;4.80;2.33;;;;;;;;;;5044650;28;20079;-70
2022/03/14 13:05:18;;;;;;;6.05;2.50;;;;;;;;;;5044146;28;20037;-69
2022/03/14 13:07:44;;;;;;;7.22;2.92;;;;;;;;;;5044929;28;20048;-70
2022/03/14 13:10:10;;;;;;;8.85;2.70;;;;;;;;;;5044583;28;20047;-69
2022/03/14 13:12:36;;;;;;;6.38;2.42;;;;;;;;;;5054621;28;20421;-70
2022/03/14 13:15:06;;;;;;;6.75;2.90;;;;;;;;;;5047115;28;20048;-70
2022/03/14 13:17:32;;;;;;;8.63;2.80;;;;;;;;;;5034984;28;20136;-69
2022/03/14 13:19:58;;;;;;;13.43;2.65;;;;;;;;;;5029191;28;20077;-70
2022/03/14 13:22:24;;;;;;;7.55;3.00;;;;;;;;;;5044765;28;20072;-70
2022/03/14 13:24:50;;;;;;;7.88;2.65;;;;;;;;;;5046240;28;20561;-70
2022/03/14 13:27:24;;;;;;;5.10;2.10;;;;;;;;;;5044687;28;20052;-70
2022/03/14 13:29:50;;;;;;;7.32;2.88;;;;;;;;;;5034521;28;20048;-70
2022/03/14 13:32:18;;;;;;;6.93;2.53;;;;;;;;;;5040633;28;20036;-69
2022/03/14 13:35:02;;;;;;;7.45;2.35;;;;;;;;;;5064021;28;20730;-70
2022/03/14 13:37:28;;;;;;;8.55;3.25;;;;;;;;;;5042260;28;20124;-70
2022/03/14 13:39:54;;;;;;;8.60;3.35;;;;;;;;;;5043470;28;20615;-70
2022/03/14 13:42:20;;;;;;;8.18;3.35;;;;;;;;;;5043648;28;20040;-70
2022/03/14 13:44:46;;;;;;;7.35;3.05;;;;;;;;;;5026192;28;20095;-70
2022/03/14 13:47:12;;;;;;;8.75;3.05;;;;;;;;;;5045478;28;20529;-70
2022/03/14 13:49:43;;;;;;;8.18;3.33;;;;;;;;;;5043269;28;20033;-70
2022/03/14 13:52:13;;;;;;;6.97;2.92;;;;;;;;;;5045841;28;20112;-71
2022/03/14 13:54:46;;;;;;;6.55;2.90;;;;;;;;;;5043991;28;20158;-71
2022/03/14 13:57:13;;;;;;;6.20;2.38;;;;;;;;;;5037339;28;20048;-70
2022/03/14 13:59:40;;;;;;;7.25;2.60;;;;;;;;;;5063358;28;20044;-71
2022/03/14 14:02:08;;;;;;;6.38;2.85;;;;;;;;;;5061908;28;20086;-70
2022/03/14 14:04:35;;;;;;;8.30;3.33;;;;;;;;;;5062954;28;20111;-71
2022/03/14 14:07:01;;;;;;;9.57;2.97;;;;;;;;;;5062008;28;20631;-70
2022/03/14 14:09:29;;;;;;;7.78;3.33;;;;;;;;;;5063759;28;20052;-70
2022/03/14 14:11:59;;;;;;;7.47;3.00;;;;;;;;;;5063027;28;20044;-70
2022/03/14 14:14:25;;;;;;;6.55;2.63;;;;;;;;;;5063478;28;20040;-71
2022/03/14 14:16:52;;;;;;;6.32;3.00;;;;;;;;;;5061726;28;20098;-71
2022/03/14 14:19:18;;;;;;;7.80;3.10;;;;;;;;;;5063042;28;20056;-71
2022/03/14 14:21:55;;;;;;;8.75;3.13;;;;;;;;;;5061823;28;20047;-71
2022/03/14 14:24:24;;;;;;;7.35;2.88;;;;;;;;;;5063491;28;20049;-71
2022/03/14 14:26:51;;;;;;;6.50;2.67;;;;;;;;;;5062211;28;20060;-70
2022/03/14 14:29:36;;;;;;;5.28;2.25;;;;;;;;;;5062383;28;20045;-71
2022/03/14 14:32:15;;;;;;;7.55;2.40;;;;;;;;;;5045108;28;20066;-71
2022/03/14 14:34:41;;;;;;;6.13;2.25;;;;;;;;;;5063111;28;20040;-70
2022/03/14 14:37:07;;;;;;;6.40;2.25;;;;;;;;;;5061732;28;20123;-70
2022/03/14 14:39:36;;;;;;;8.38;2.55;;;;;;;;;;5063567;28;20407;-71
2022/03/14 14:42:07;;;;;;;5.40;2.15;;;;;;;;;;5061612;28;20040;-70
2022/03/14 14:44:34;;;;;;;7.32;2.55;;;;;;;;;;5046884;28;20051;-71